메인 페이지
METAR-TAF:

METAR-TAF

공항 :

라 아우로라 국제공항

과테말라, 과테말라

위도: 14-35N, 경도: 090-31W, 고도: 1489m

현재 날씨관측

예보는 1 시간 9분 전, 13:00시(UTC)에 발표되었습니다.
12kt
온도 16°C
습도 88%
기압 1028 hPa
시정 10km 이상
고도 1200ft 상공 구름 많음

METAR: MGGT 061300Z 36012KT 9999 BKN012 16/14 Q1028 A3036

시각: 08:09 (14:09 UTC)

예보

예보는 9 시간 9분 전, 05:00시(UTC)에 발표되었습니다.
예보 대상 시간: 06일 06시부터 06일 07시까지 (UTC)
14kt
시정 10km 이상
고도 1400ft 상공 구름 많음
전환 중
06일 14시부터 06일 16시까지 (UTC)
고도 1800ft 상공 구름 조금
일시적
06일 20시부터 06일 24시까지 (UTC)
고도 2000ft 상공 구름 보통
전환 중
07일 01시부터 07일 03시까지 (UTC)
고도 1600ft 상공 구름 보통

TAF: MGGT 060500Z 06060706 36014KT 9999 BKN014 TX25/0620Z TN13/0612Z BECMG 0614/0616 FEW018 TEMPO 0620/0624 SCT020 BECMG 0701/0703 SCT016

4,000개 이상의 공항 관측 자료 및 예보 (METAR 및 TAF 보고).

지도상에서 검색 가능한 기상관측소가 노란 점과 빨간 점으로 표시되어 있습니다.

기상관측소 명을 보려면 표시 위로 마우스를 이동하세요.

날씨 관측과 예보를 보려면 클릭하세요.

지도 변경 : 확대하려면 엑스 표시가 있는 녹색 버튼, 축소하려면 빼기 표시가 있는 녹색 버튼, 다음 페이지의 지도를 보려면 녹색 화살표를 클릭하세요.


METAR-TAF: